Chicago, Illinois
Traffic Map
Current Weather Conditions
Chicago, Illinois
Overcast Light Rain
Overcast
23°
Feels Like: 23°
Wind Chill: 23° Ceiling: 8500
Heat Index: 23° Visibility: 5mi
Dew Point: 21° Wind: 7mph
Humidity: 87% Direction: 230° (SW)
Pressure: 29.96in Gusts: 0mph
Raw Report DataKMDW 210751Z 23006KT 5SM -RA BR FEW028 BKN085 OVC110 23/21 A2996 RMK AO2 RAE27B46 SLP133 P0004 T02280206
Traffic Incident Summary
Active as of:
Severity:
Category:
InformationThere was an issue retrieving the traffic information for this location. Please try a different location or try again shortly.
Advertisements
Track Severe Weather on mobile